createdAt,value
2023-02-24T00:01:46.160Z,5.77
2023-02-24T00:04:13.328Z,5.61
2023-02-24T00:06:40.943Z,5.49
2023-02-24T00:09:09.425Z,5.31
2023-02-24T00:11:36.976Z,5.19
2023-02-24T00:14:06.674Z,5.19
2023-02-24T00:16:33.900Z,5.06
2023-02-24T00:19:00.844Z,5.00
2023-02-24T00:21:28.446Z,4.79
2023-02-24T00:23:55.030Z,4.82
2023-02-24T00:26:21.492Z,4.79
2023-02-24T00:28:47.843Z,4.54
2023-02-24T00:31:15.876Z,4.59
2023-02-24T00:33:43.369Z,4.39
2023-02-24T00:36:24.607Z,4.51
2023-02-24T00:38:55.467Z,4.35
2023-02-24T00:41:23.787Z,4.12
2023-02-24T00:43:50.636Z,4.31
2023-02-24T00:46:18.232Z,4.40
2023-02-24T00:48:45.895Z,4.09
2023-02-24T00:51:13.677Z,4.35
2023-02-24T00:53:40.258Z,4.15
2023-02-24T00:56:07.590Z,4.19
2023-02-24T00:58:36.704Z,4.13
2023-02-24T01:01:04.303Z,4.29
2023-02-24T01:03:33.682Z,4.29
2023-02-24T01:06:01.008Z,4.01
2023-02-24T01:08:27.558Z,4.16
2023-02-24T01:11:17.571Z,3.87
2023-02-24T01:13:44.881Z,3.99
2023-02-24T01:16:13.710Z,4.07
2023-02-24T01:18:41.485Z,3.96
2023-02-24T01:21:07.876Z,4.11
2023-02-24T01:23:34.459Z,3.84
2023-02-24T01:26:02.320Z,3.80
2023-02-24T01:28:28.780Z,4.00
2023-02-24T01:30:55.226Z,3.75
2023-02-24T01:33:22.021Z,3.83
2023-02-24T01:35:48.450Z,3.76
2023-02-24T01:38:15.005Z,3.67
2023-02-24T01:40:41.334Z,3.69
2023-02-24T01:43:10.362Z,3.60
2023-02-24T01:45:36.819Z,3.58
2023-02-24T01:48:05.615Z,3.59
2023-02-24T01:50:33.834Z,3.61
2023-02-24T01:53:01.871Z,3.67
2023-02-24T01:55:32.003Z,3.79
2023-02-24T01:57:59.727Z,3.70
2023-02-24T02:00:37.353Z,3.72
2023-02-24T02:03:08.005Z,3.57
2023-02-24T02:05:34.490Z,3.73
2023-02-24T02:08:01.853Z,3.73
2023-02-24T02:10:28.912Z,3.77
2023-02-24T02:12:55.726Z,3.92
2023-02-24T02:15:22.172Z,3.59
2023-02-24T02:17:57.375Z,3.65
2023-02-24T02:20:42.721Z,3.57
2023-02-24T02:23:09.419Z,3.55
2023-02-24T02:25:44.878Z,3.62
2023-02-24T02:28:14.260Z,3.65
2023-02-24T02:30:59.206Z,3.70
2023-02-24T02:33:30.057Z,3.74
2023-02-24T02:36:13.704Z,3.78
2023-02-24T02:38:49.266Z,3.66
2023-02-24T02:41:24.816Z,3.59
2023-02-24T02:43:56.956Z,3.70
2023-02-24T02:46:34.517Z,3.56
2023-02-24T02:49:30.304Z,3.45
2023-02-24T02:52:01.389Z,3.64
2023-02-24T02:54:32.619Z,3.64
2023-02-24T02:57:05.177Z,3.57
2023-02-24T02:59:34.958Z,3.68
2023-02-24T03:02:11.604Z,3.76
2023-02-24T03:04:44.040Z,3.73
2023-02-24T03:07:12.848Z,3.67
2023-02-24T03:09:46.141Z,3.71
2023-02-24T03:12:14.838Z,3.58
2023-02-24T03:14:45.983Z,3.57
2023-02-24T03:17:16.955Z,3.61
2023-02-24T03:19:45.970Z,3.52
2023-02-24T03:22:27.564Z,3.63
2023-02-24T03:24:55.274Z,3.52
2023-02-24T03:27:48.308Z,3.80
2023-02-24T03:30:28.302Z,3.64
2023-02-24T03:32:58.853Z,3.80
2023-02-24T03:35:31.235Z,3.84
2023-02-24T03:37:59.310Z,3.78
2023-02-24T03:40:34.523Z,3.78
2023-02-24T03:43:05.270Z,3.67
2023-02-24T03:45:34.639Z,3.60
2023-02-24T03:48:04.196Z,3.69
2023-02-24T03:50:32.345Z,3.59
2023-02-24T03:53:01.674Z,3.65
2023-02-24T03:55:34.209Z,3.72
2023-02-24T03:58:04.152Z,3.66
2023-02-24T04:00:39.941Z,3.69
2023-02-24T04:03:12.441Z,3.48
2023-02-24T04:05:53.299Z,3.78
2023-02-24T04:08:21.137Z,3.63
2023-02-24T04:11:10.253Z,3.62
2023-02-24T04:13:43.765Z,3.62
2023-02-24T04:16:36.252Z,3.64
2023-02-24T04:19:05.099Z,3.69
2023-02-24T04:21:32.104Z,3.65
2023-02-24T04:24:00.759Z,3.51
2023-02-24T04:26:28.897Z,3.49
2023-02-24T04:28:56.286Z,3.53
2023-02-24T04:31:24.339Z,3.56
2023-02-24T04:33:50.897Z,3.46
2023-02-24T04:36:18.124Z,3.45
2023-02-24T04:38:45.862Z,3.44
2023-02-24T04:41:13.763Z,3.53
2023-02-24T04:43:40.854Z,3.37
2023-02-24T04:46:08.136Z,3.42
2023-02-24T04:48:34.951Z,3.42
2023-02-24T04:51:03.609Z,3.38
2023-02-24T04:53:30.488Z,3.61
2023-02-24T04:55:57.016Z,3.44
2023-02-24T04:58:27.965Z,3.45
2023-02-24T05:00:57.258Z,3.42
2023-02-24T05:03:28.415Z,3.26
2023-02-24T05:05:57.692Z,3.52
2023-02-24T05:08:24.718Z,3.45
2023-02-24T05:10:51.840Z,3.31
2023-02-24T05:13:22.436Z,3.52
2023-02-24T05:15:49.599Z,3.55
2023-02-24T05:18:23.876Z,3.69
2023-02-24T05:21:10.680Z,3.57
2023-02-24T05:23:40.235Z,3.45
2023-02-24T05:26:10.541Z,3.42
2023-02-24T05:28:38.407Z,3.36
2023-02-24T05:31:08.224Z,3.27
2023-02-24T05:33:35.554Z,3.33
2023-02-24T05:36:05.287Z,3.63
2023-02-24T05:38:32.342Z,3.06
2023-02-24T05:41:04.543Z,3.19
2023-02-24T05:43:31.258Z,3.46
2023-02-24T05:46:03.084Z,3.55
2023-02-24T05:48:34.901Z,3.45
2023-02-24T05:51:05.301Z,3.48
2023-02-24T05:53:31.692Z,3.35
2023-02-24T05:56:00.350Z,3.07
2023-02-24T05:58:29.025Z,3.37
2023-02-24T06:00:56.293Z,3.34
2023-02-24T06:03:30.900Z,3.48
2023-02-24T06:06:05.421Z,3.28
2023-02-24T06:08:42.009Z,3.48
2023-02-24T06:11:10.217Z,3.38
2023-02-24T06:13:37.512Z,3.46
2023-02-24T06:16:05.113Z,3.40
2023-02-24T06:18:31.448Z,3.59
2023-02-24T06:21:00.676Z,3.58
2023-02-24T06:23:27.084Z,3.67
2023-02-24T06:25:57.686Z,3.61
2023-02-24T06:28:26.970Z,3.46
2023-02-24T06:30:53.314Z,3.63
2023-02-24T06:33:19.598Z,3.63
2023-02-24T06:35:46.031Z,3.47
2023-02-24T06:38:12.324Z,3.49
2023-02-24T06:40:38.622Z,3.35
2023-02-24T06:43:04.975Z,3.43
2023-02-24T06:45:32.052Z,3.11
2023-02-24T06:47:58.339Z,3.24
2023-02-24T06:50:24.680Z,3.33
2023-02-24T06:52:54.968Z,3.56
2023-02-24T06:55:27.470Z,3.62
2023-02-24T06:57:57.966Z,3.62
2023-02-24T07:00:36.770Z,3.38
2023-02-24T07:03:14.522Z,3.64
2023-02-24T07:05:51.021Z,3.80
2023-02-24T07:08:18.539Z,3.45
2023-02-24T07:10:45.198Z,3.72
2023-02-24T07:13:13.464Z,3.51
2023-02-24T07:15:39.820Z,3.44
2023-02-24T07:18:14.661Z,3.71
2023-02-24T07:20:43.587Z,3.24
2023-02-24T07:23:09.862Z,3.36
2023-02-24T07:25:36.184Z,3.63
2023-02-24T07:28:02.512Z,3.40
2023-02-24T07:30:30.320Z,3.58
2023-02-24T07:32:57.106Z,3.43
2023-02-24T07:35:23.935Z,3.62
2023-02-24T07:37:50.556Z,3.70
2023-02-24T07:40:17.479Z,3.81
2023-02-24T07:42:44.042Z,3.51
2023-02-24T07:45:10.676Z,3.46
2023-02-24T07:47:37.041Z,3.56
2023-02-24T07:50:05.988Z,3.68
2023-02-24T07:52:32.726Z,3.51
2023-02-24T07:55:00.168Z,3.56
2023-02-24T07:57:28.802Z,3.65
2023-02-24T07:59:55.103Z,3.35
2023-02-24T08:02:23.742Z,3.45
2023-02-24T08:04:51.388Z,3.56
2023-02-24T08:07:24.100Z,3.69
2023-02-24T08:10:09.381Z,3.97
2023-02-24T08:12:38.545Z,3.89
2023-02-24T08:15:16.901Z,4.04
2023-02-24T08:17:43.910Z,4.18
2023-02-24T08:20:13.126Z,4.08
2023-02-24T08:22:43.857Z,4.08
2023-02-24T08:25:18.059Z,4.08
2023-02-24T08:27:46.940Z,4.03
2023-02-24T08:30:23.349Z,4.08
2023-02-24T08:32:56.827Z,3.88
2023-02-24T08:35:25.780Z,4.13
2023-02-24T08:37:53.334Z,4.17
2023-02-24T08:40:33.468Z,3.78
2023-02-24T08:43:17.674Z,3.92
2023-02-24T08:45:45.267Z,4.11
2023-02-24T08:48:33.093Z,3.89
2023-02-24T08:51:01.624Z,3.90
2023-02-24T08:53:33.882Z,3.97
2023-02-24T08:56:09.347Z,3.97
2023-02-24T08:58:40.836Z,3.81
2023-02-24T09:01:18.358Z,3.92
2023-02-24T09:03:48.977Z,3.99
2023-02-24T09:06:25.346Z,4.00
2023-02-24T09:09:13.256Z,3.81
2023-02-24T09:11:43.961Z,4.09
2023-02-24T09:14:26.113Z,4.07
2023-02-24T09:17:11.777Z,4.17
2023-02-24T09:19:52.196Z,4.02
2023-02-24T09:22:26.005Z,4.12
2023-02-24T09:25:12.293Z,4.23
2023-02-24T09:27:42.256Z,4.04
2023-02-24T09:30:31.641Z,3.73
2023-02-24T09:33:01.438Z,4.14
2023-02-24T09:35:31.053Z,4.10
2023-02-24T09:38:00.330Z,3.93
2023-02-24T09:40:48.849Z,4.10
2023-02-24T09:43:28.057Z,3.85
2023-02-24T09:45:58.388Z,4.15
2023-02-24T09:48:30.266Z,4.18
2023-02-24T09:51:05.629Z,3.88
2023-02-24T09:53:41.352Z,3.91
2023-02-24T09:56:26.826Z,3.85
2023-02-24T09:59:10.393Z,4.02
2023-02-24T10:01:55.595Z,3.70
2023-02-24T10:04:37.651Z,3.52
2023-02-24T10:07:38.419Z,3.90
2023-02-24T10:10:20.480Z,3.71
2023-02-24T10:12:52.531Z,3.81
2023-02-24T10:15:21.049Z,3.65
2023-02-24T10:17:52.155Z,3.52
2023-02-24T10:20:51.012Z,3.51
2023-02-24T10:23:17.324Z,3.17
2023-02-24T10:25:53.715Z,3.36
2023-02-24T10:28:35.709Z,3.34
2023-02-24T10:31:10.299Z,3.23
2023-02-24T10:33:39.329Z,3.61
2023-02-24T10:36:09.039Z,3.56
2023-02-24T10:38:36.335Z,3.48
2023-02-24T10:41:06.115Z,3.21
2023-02-24T10:43:42.751Z,2.94
2023-02-24T10:46:22.145Z,2.90
2023-02-24T10:49:00.357Z,3.01
2023-02-24T10:51:38.287Z,2.81
2023-02-24T10:54:22.295Z,2.92
2023-02-24T10:57:00.525Z,2.82
2023-02-24T10:59:48.357Z,2.89
2023-02-24T11:02:32.885Z,2.81
2023-02-24T11:05:16.861Z,2.82
2023-02-24T11:07:53.817Z,3.14
2023-02-24T11:10:32.592Z,3.15
2023-02-24T11:13:19.027Z,2.87
2023-02-24T11:16:06.932Z,2.92
2023-02-24T11:18:33.814Z,3.09
2023-02-24T11:21:00.101Z,2.89
2023-02-24T11:23:29.080Z,3.08
2023-02-24T11:26:01.102Z,2.87
2023-02-24T11:28:43.394Z,2.98
2023-02-24T11:31:09.756Z,2.93
2023-02-24T11:33:42.468Z,2.65
2023-02-24T11:36:15.790Z,2.69
2023-02-24T11:38:45.773Z,2.69
2023-02-24T11:41:18.922Z,2.77
2023-02-24T11:43:49.784Z,2.77
2023-02-24T11:46:20.643Z,2.78
2023-02-24T11:48:51.774Z,2.83
2023-02-24T11:51:20.273Z,2.78
2023-02-24T11:54:04.107Z,2.66
2023-02-24T11:56:33.740Z,2.95
2023-02-24T11:59:11.088Z,2.25
2023-02-24T12:01:48.595Z,2.42
2023-02-24T12:04:24.870Z,2.58
2023-02-24T12:07:09.687Z,2.51
2023-02-24T12:09:53.744Z,2.86
2023-02-24T12:12:21.337Z,2.98
2023-02-24T12:14:51.822Z,3.08
2023-02-24T12:17:23.902Z,3.10
2023-02-24T12:19:51.630Z,3.11
2023-02-24T12:22:17.969Z,2.54
2023-02-24T12:24:47.592Z,2.77
2023-02-24T12:27:13.857Z,2.67
2023-02-24T12:29:42.392Z,2.50
2023-02-24T12:32:21.566Z,2.92
2023-02-24T12:34:48.807Z,2.61
2023-02-24T12:37:34.683Z,2.76
2023-02-24T12:40:00.989Z,2.75
2023-02-24T12:42:45.640Z,2.52
2023-02-24T12:45:14.986Z,2.44
2023-02-24T12:48:00.141Z,2.60
2023-02-24T12:50:35.133Z,2.53
2023-02-24T12:53:07.549Z,2.69
2023-02-24T12:55:52.238Z,2.68
2023-02-24T12:58:18.548Z,2.53
2023-02-24T13:00:44.882Z,2.24
2023-02-24T13:03:29.724Z,2.63
2023-02-24T13:06:06.072Z,2.55
2023-02-24T13:08:51.620Z,2.47
2023-02-24T13:11:21.081Z,2.23
2023-02-24T13:13:56.359Z,2.54
2023-02-24T13:16:33.805Z,2.81
2023-02-24T13:19:19.145Z,2.60
2023-02-24T13:22:03.743Z,2.81
2023-02-24T13:24:30.164Z,2.47
2023-02-24T13:27:20.969Z,2.69
2023-02-24T13:29:51.678Z,2.43
2023-02-24T13:32:33.357Z,2.63
2023-02-24T13:35:01.765Z,2.78
2023-02-24T13:37:29.064Z,2.61
2023-02-24T13:39:55.597Z,2.67
2023-02-24T13:42:25.025Z,2.89
2023-02-24T13:44:54.412Z,2.80
2023-02-24T13:47:30.142Z,2.64
2023-02-24T13:50:13.149Z,2.64
2023-02-24T13:52:45.859Z,2.75
2023-02-24T13:55:30.991Z,2.80
2023-02-24T13:57:57.301Z,2.47
2023-02-24T14:00:28.532Z,2.79
2023-02-24T14:02:55.344Z,2.80
2023-02-24T14:05:21.655Z,2.58
2023-02-24T14:07:50.151Z,2.58
2023-02-24T14:10:21.298Z,2.64
2023-02-24T14:12:48.304Z,2.70
2023-02-24T14:15:23.191Z,2.67
2023-02-24T14:17:56.982Z,2.67
2023-02-24T14:20:24.516Z,2.55
2023-02-24T14:22:55.113Z,2.74
2023-02-24T14:25:26.227Z,2.60
2023-02-24T14:27:53.592Z,2.61
2023-02-24T14:30:22.814Z,2.88
2023-02-24T14:32:49.391Z,2.91
2023-02-24T14:35:31.307Z,3.01
2023-02-24T14:37:57.668Z,3.00
2023-02-24T14:40:25.530Z,3.05
2023-02-24T14:42:54.439Z,2.91
2023-02-24T14:45:23.123Z,3.12
2023-02-24T14:47:49.462Z,2.81
2023-02-24T14:50:17.603Z,2.78
2023-02-24T14:52:51.079Z,3.03
2023-02-24T14:55:20.141Z,3.01
2023-02-24T14:57:56.396Z,3.18
2023-02-24T15:00:45.713Z,3.36
2023-02-24T15:03:22.402Z,3.30
2023-02-24T15:05:51.120Z,3.33
2023-02-24T15:08:23.368Z,3.31
2023-02-24T15:10:49.807Z,3.15
2023-02-24T15:13:27.674Z,3.11
2023-02-24T15:15:54.082Z,3.19
2023-02-24T15:18:28.319Z,3.03
2023-02-24T15:21:01.959Z,3.07
2023-02-24T15:23:32.692Z,3.27
2023-02-24T15:25:59.074Z,3.14
2023-02-24T15:28:27.282Z,3.25
2023-02-24T15:30:59.028Z,3.43
2023-02-24T15:33:29.171Z,3.02
2023-02-24T15:35:57.459Z,3.11
2023-02-24T15:38:24.987Z,2.85
2023-02-24T15:40:52.959Z,2.91
2023-02-24T15:43:32.052Z,3.04
2023-02-24T15:45:58.450Z,3.25
2023-02-24T15:48:31.263Z,3.37
2023-02-24T15:51:01.608Z,3.31
2023-02-24T15:53:27.940Z,3.11
2023-02-24T15:55:54.314Z,3.03
2023-02-24T15:58:22.132Z,3.11
2023-02-24T16:00:52.604Z,3.10
2023-02-24T16:03:19.007Z,3.14
2023-02-24T16:05:45.443Z,3.34
2023-02-24T16:08:13.585Z,3.16
2023-02-24T16:10:40.057Z,3.30
2023-02-24T16:13:06.407Z,2.97
2023-02-24T16:15:35.407Z,3.10
2023-02-24T16:18:02.665Z,3.19
2023-02-24T16:20:35.613Z,3.10
2023-02-24T16:23:03.259Z,3.09
2023-02-24T16:25:33.221Z,3.21
2023-02-24T16:27:59.560Z,3.08
2023-02-24T16:30:29.512Z,3.36
2023-02-24T16:32:56.654Z,3.23
2023-02-24T16:35:23.456Z,3.31
2023-02-24T16:37:49.791Z,3.28
2023-02-24T16:40:20.036Z,3.36
2023-02-24T16:42:47.292Z,3.04
2023-02-24T16:45:13.615Z,3.28
2023-02-24T16:47:40.567Z,3.27
2023-02-24T16:50:07.066Z,3.10
2023-02-24T16:52:33.370Z,3.42
2023-02-24T16:55:01.934Z,3.52
2023-02-24T16:57:28.510Z,3.39
2023-02-24T16:59:54.910Z,3.47
2023-02-24T17:02:25.862Z,3.30
2023-02-24T17:04:52.620Z,3.22
2023-02-24T17:07:20.902Z,3.34
2023-02-24T17:09:47.222Z,3.12
2023-02-24T17:12:15.214Z,3.15
2023-02-24T17:14:41.715Z,2.97
2023-02-24T17:17:08.180Z,3.11
2023-02-24T17:19:34.565Z,3.14
2023-02-24T17:22:00.874Z,2.90
2023-02-24T17:24:28.417Z,2.98
2023-02-24T17:26:58.662Z,3.16
2023-02-24T17:29:25.349Z,3.20
2023-02-24T17:31:51.895Z,3.17
2023-02-24T17:34:18.796Z,3.14
2023-02-24T17:36:45.106Z,3.12
2023-02-24T17:39:11.425Z,3.26
2023-02-24T17:41:37.782Z,3.33
2023-02-24T17:44:04.167Z,3.62
2023-02-24T17:46:30.533Z,3.56
2023-02-24T17:48:57.272Z,3.35
2023-02-24T17:51:23.643Z,3.30
2023-02-24T17:53:49.996Z,3.15
2023-02-24T17:56:16.446Z,3.36
2023-02-24T17:58:42.772Z,3.25
2023-02-24T18:01:09.212Z,3.57
2023-02-24T18:03:36.156Z,3.30
2023-02-24T18:06:07.466Z,3.34
2023-02-24T18:08:34.907Z,3.09
2023-02-24T18:11:01.832Z,3.24
2023-02-24T18:13:28.665Z,3.13
2023-02-24T18:15:55.145Z,3.26
2023-02-24T18:18:21.628Z,3.10
2023-02-24T18:20:47.975Z,3.33
2023-02-24T18:23:14.901Z,3.39
2023-02-24T18:25:41.229Z,3.48
2023-02-24T18:28:07.618Z,3.45
2023-02-24T18:30:34.076Z,3.19
2023-02-24T18:33:00.774Z,3.31
2023-02-24T18:35:29.149Z,3.41
2023-02-24T18:37:58.556Z,3.17
2023-02-24T18:40:28.530Z,3.43
2023-02-24T18:42:55.017Z,3.22
2023-02-24T18:45:22.593Z,3.20
2023-02-24T18:47:50.536Z,3.06
2023-02-24T18:50:17.307Z,3.17
2023-02-24T18:52:43.700Z,3.13
2023-02-24T18:55:10.233Z,3.40
2023-02-24T18:57:37.140Z,3.20
2023-02-24T19:00:06.957Z,3.36
2023-02-24T19:02:33.366Z,3.39
2023-02-24T19:04:59.712Z,3.47
2023-02-24T19:07:26.226Z,3.50
2023-02-24T19:09:52.630Z,3.41
2023-02-24T19:12:20.376Z,3.22
2023-02-24T19:14:50.429Z,3.34
2023-02-24T19:17:16.825Z,3.29
2023-02-24T19:19:43.461Z,3.26
2023-02-24T19:22:09.770Z,3.20
2023-02-24T19:24:36.118Z,3.43
2023-02-24T19:27:02.421Z,3.50
2023-02-24T19:29:28.852Z,3.28
2023-02-24T19:32:00.708Z,3.61
2023-02-24T19:34:27.126Z,3.68
2023-02-24T19:36:53.504Z,3.71
2023-02-24T19:39:19.923Z,3.41
2023-02-24T19:41:49.209Z,3.56
2023-02-24T19:44:15.906Z,3.58
2023-02-24T19:46:43.007Z,3.23
2023-02-24T19:49:09.419Z,3.32
2023-02-24T19:51:35.828Z,3.30
2023-02-24T19:54:08.752Z,3.46
2023-02-24T19:56:35.932Z,3.83
2023-02-24T19:59:03.052Z,3.69
2023-02-24T20:01:30.104Z,3.79
2023-02-24T20:04:01.300Z,3.79
2023-02-24T20:06:31.341Z,3.83
2023-02-24T20:08:58.156Z,3.84
2023-02-24T20:11:24.551Z,3.90
2023-02-24T20:13:51.575Z,3.87
2023-02-24T20:16:19.123Z,3.82
2023-02-24T20:18:45.570Z,3.94
2023-02-24T20:21:12.598Z,3.48
2023-02-24T20:23:40.199Z,3.82
2023-02-24T20:26:07.050Z,3.74
2023-02-24T20:28:33.541Z,3.72
2023-02-24T20:31:05.206Z,3.67
2023-02-24T20:33:31.666Z,3.56
2023-02-24T20:35:58.015Z,3.66
2023-02-24T20:38:24.428Z,3.73
2023-02-24T20:40:59.362Z,3.83
2023-02-24T20:43:26.958Z,3.63
2023-02-24T20:45:53.279Z,3.69
2023-02-24T20:48:19.929Z,3.70
2023-02-24T20:50:46.341Z,3.70
2023-02-24T20:53:12.653Z,3.78
2023-02-24T20:55:38.963Z,3.64
2023-02-24T20:58:05.332Z,3.77
2023-02-24T21:00:34.095Z,3.57
2023-02-24T21:03:00.976Z,3.64
2023-02-24T21:05:27.605Z,3.94
2023-02-24T21:07:54.237Z,3.88
2023-02-24T21:10:25.767Z,3.75
2023-02-24T21:12:52.695Z,3.71
2023-02-24T21:15:19.626Z,3.69
2023-02-24T21:17:46.107Z,3.83
2023-02-24T21:20:13.252Z,3.36
2023-02-24T21:22:40.409Z,3.66
2023-02-24T21:25:07.324Z,3.64
2023-02-24T21:27:34.106Z,3.72
2023-02-24T21:30:00.462Z,3.89
2023-02-24T21:32:26.872Z,3.82
2023-02-24T21:34:53.211Z,3.78
2023-02-24T21:37:19.530Z,3.75
2023-02-24T21:39:45.857Z,3.72
2023-02-24T21:42:12.230Z,3.80
2023-02-24T21:44:44.147Z,3.61
2023-02-24T21:47:10.917Z,3.73
2023-02-24T21:49:37.305Z,3.51
2023-02-24T21:52:05.432Z,3.44
2023-02-24T21:54:32.196Z,3.62
2023-02-24T21:56:58.596Z,3.68
2023-02-24T21:59:24.929Z,3.69
2023-02-24T22:01:51.388Z,3.58
2023-02-24T22:04:19.121Z,3.79
2023-02-24T22:06:45.733Z,3.81
2023-02-24T22:09:15.035Z,3.86
2023-02-24T22:11:41.664Z,3.76
2023-02-24T22:14:09.151Z,3.94
2023-02-24T22:16:35.583Z,3.86
2023-02-24T22:19:02.072Z,3.80
2023-02-24T22:21:29.179Z,3.78
2023-02-24T22:24:00.275Z,3.88
2023-02-24T22:26:27.443Z,3.78
2023-02-24T22:28:54.811Z,3.90
2023-02-24T22:31:22.581Z,4.09
2023-02-24T22:33:49.416Z,3.96
2023-02-24T22:36:16.985Z,4.01
2023-02-24T22:38:43.724Z,3.98
2023-02-24T22:41:21.007Z,4.04
2023-02-24T22:43:47.543Z,3.79
2023-02-24T22:46:15.396Z,3.77
2023-02-24T22:48:42.091Z,3.75
2023-02-24T22:51:09.677Z,3.69
2023-02-24T22:53:37.648Z,3.64
2023-02-24T22:56:04.268Z,3.60
2023-02-24T22:58:30.637Z,3.52
2023-02-24T23:00:58.360Z,3.49
2023-02-24T23:03:26.962Z,3.56
2023-02-24T23:06:04.634Z,3.61
2023-02-24T23:08:32.012Z,3.46
2023-02-24T23:11:05.776Z,3.52
2023-02-24T23:13:35.150Z,3.49
2023-02-24T23:16:03.358Z,3.48
2023-02-24T23:18:30.596Z,3.45
2023-02-24T23:20:59.457Z,3.57
2023-02-24T23:23:27.046Z,3.62
2023-02-24T23:25:53.874Z,3.52
2023-02-24T23:28:20.203Z,3.39
2023-02-24T23:30:46.642Z,3.26
2023-02-24T23:33:13.336Z,3.36
2023-02-24T23:35:40.654Z,3.36
2023-02-24T23:38:07.543Z,3.37
2023-02-24T23:40:48.053Z,3.28
2023-02-24T23:43:15.724Z,3.28
2023-02-24T23:45:42.775Z,3.26
2023-02-24T23:48:10.321Z,3.06
2023-02-24T23:50:37.644Z,3.23
2023-02-24T23:53:04.516Z,3.19
2023-02-24T23:55:33.973Z,3.19
2023-02-24T23:58:00.653Z,3.20
